sensor_id;sensor_type;location;lat;lon;timestamp;temperature;humidity
1337;DHT22;662;48.814;9.318;2023-05-28T00:00:29;18.20;47.90
1337;DHT22;662;48.814;9.318;2023-05-28T00:02:55;18.20;48.00
1337;DHT22;662;48.814;9.318;2023-05-28T00:05:22;18.10;48.10
1337;DHT22;662;48.814;9.318;2023-05-28T00:07:49;18.10;48.20
1337;DHT22;662;48.814;9.318;2023-05-28T00:10:15;18.00;48.40
1337;DHT22;662;48.814;9.318;2023-05-28T00:12:40;18.00;48.50
1337;DHT22;662;48.814;9.318;2023-05-28T00:15:06;18.00;48.60
1337;DHT22;662;48.814;9.318;2023-05-28T00:17:33;17.90;48.60
1337;DHT22;662;48.814;9.318;2023-05-28T00:19:58;17.80;48.70
1337;DHT22;662;48.814;9.318;2023-05-28T00:22:24;17.80;48.80
1337;DHT22;662;48.814;9.318;2023-05-28T00:24:50;17.70;48.80
1337;DHT22;662;48.814;9.318;2023-05-28T00:27:16;17.70;49.00
1337;DHT22;662;48.814;9.318;2023-05-28T00:29:41;17.70;49.10
1337;DHT22;662;48.814;9.318;2023-05-28T00:32:09;17.60;49.20
1337;DHT22;662;48.814;9.318;2023-05-28T00:34:34;17.60;49.30
1337;DHT22;662;48.814;9.318;2023-05-28T00:37:01;17.50;49.30
1337;DHT22;662;48.814;9.318;2023-05-28T00:39:26;17.50;49.50
1337;DHT22;662;48.814;9.318;2023-05-28T00:42:02;17.50;49.70
1337;DHT22;662;48.814;9.318;2023-05-28T00:44:29;17.50;49.70
1337;DHT22;662;48.814;9.318;2023-05-28T00:46:54;17.40;49.80
1337;DHT22;662;48.814;9.318;2023-05-28T00:49:20;17.40;49.90
1337;DHT22;662;48.814;9.318;2023-05-28T00:51:48;17.40;49.90
1337;DHT22;662;48.814;9.318;2023-05-28T00:54:15;17.40;49.90
1337;DHT22;662;48.814;9.318;2023-05-28T00:56:41;17.40;50.00
1337;DHT22;662;48.814;9.318;2023-05-28T00:59:06;17.40;50.10
1337;DHT22;662;48.814;9.318;2023-05-28T01:01:33;17.30;50.10
1337;DHT22;662;48.814;9.318;2023-05-28T01:04:00;17.30;50.10
1337;DHT22;662;48.814;9.318;2023-05-28T01:06:27;17.30;50.20
1337;DHT22;662;48.814;9.318;2023-05-28T01:08:55;17.30;50.20
1337;DHT22;662;48.814;9.318;2023-05-28T01:11:21;17.30;50.20
1337;DHT22;662;48.814;9.318;2023-05-28T01:13:48;17.30;50.30
1337;DHT22;662;48.814;9.318;2023-05-28T01:16:15;17.20;50.40
1337;DHT22;662;48.814;9.318;2023-05-28T01:18:41;17.20;50.70
1337;DHT22;662;48.814;9.318;2023-05-28T01:21:10;17.20;50.70
1337;DHT22;662;48.814;9.318;2023-05-28T01:23:45;17.20;50.70
1337;DHT22;662;48.814;9.318;2023-05-28T01:26:15;17.10;50.60
1337;DHT22;662;48.814;9.318;2023-05-28T01:28:48;17.10;50.70
1337;DHT22;662;48.814;9.318;2023-05-28T01:31:15;17.10;50.70
1337;DHT22;662;48.814;9.318;2023-05-28T01:33:42;17.10;50.70
1337;DHT22;662;48.814;9.318;2023-05-28T01:36:30;17.00;50.60
1337;DHT22;662;48.814;9.318;2023-05-28T01:38:58;17.00;50.60
1337;DHT22;662;48.814;9.318;2023-05-28T01:41:27;17.00;50.60
1337;DHT22;662;48.814;9.318;2023-05-28T01:43:53;17.00;50.60
1337;DHT22;662;48.814;9.318;2023-05-28T01:46:21;16.90;50.70
1337;DHT22;662;48.814;9.318;2023-05-28T01:48:47;16.90;50.80
1337;DHT22;662;48.814;9.318;2023-05-28T01:51:22;16.80;50.80
1337;DHT22;662;48.814;9.318;2023-05-28T01:53:48;16.80;50.90
1337;DHT22;662;48.814;9.318;2023-05-28T01:56:13;16.80;51.10
1337;DHT22;662;48.814;9.318;2023-05-28T01:58:39;16.70;51.30
1337;DHT22;662;48.814;9.318;2023-05-28T02:01:09;16.70;51.50
1337;DHT22;662;48.814;9.318;2023-05-28T02:03:36;16.70;51.50
1337;DHT22;662;48.814;9.318;2023-05-28T02:06:02;16.70;51.60
1337;DHT22;662;48.814;9.318;2023-05-28T02:08:27;16.60;51.50
1337;DHT22;662;48.814;9.318;2023-05-28T02:10:53;16.50;51.50
1337;DHT22;662;48.814;9.318;2023-05-28T02:13:19;16.50;51.50
1337;DHT22;662;48.814;9.318;2023-05-28T02:15:44;16.50;51.50
1337;DHT22;662;48.814;9.318;2023-05-28T02:18:10;16.50;51.40
1337;DHT22;662;48.814;9.318;2023-05-28T02:20:36;16.50;51.60
1337;DHT22;662;48.814;9.318;2023-05-28T02:23:02;16.50;51.70
1337;DHT22;662;48.814;9.318;2023-05-28T02:25:27;16.50;51.80
1337;DHT22;662;48.814;9.318;2023-05-28T02:27:53;16.40;51.80
1337;DHT22;662;48.814;9.318;2023-05-28T02:30:19;16.40;51.90
1337;DHT22;662;48.814;9.318;2023-05-28T02:32:44;16.30;51.80
1337;DHT22;662;48.814;9.318;2023-05-28T02:35:10;16.30;51.90
1337;DHT22;662;48.814;9.318;2023-05-28T02:37:36;16.30;51.90
1337;DHT22;662;48.814;9.318;2023-05-28T02:40:01;16.30;51.90
1337;DHT22;662;48.814;9.318;2023-05-28T02:42:28;16.20;51.60
1337;DHT22;662;48.814;9.318;2023-05-28T02:44:54;16.20;51.60
1337;DHT22;662;48.814;9.318;2023-05-28T02:47:19;16.10;51.50
1337;DHT22;662;48.814;9.318;2023-05-28T02:49:45;16.10;51.70
1337;DHT22;662;48.814;9.318;2023-05-28T02:52:11;16.10;51.70
1337;DHT22;662;48.814;9.318;2023-05-28T02:54:37;16.10;51.70
1337;DHT22;662;48.814;9.318;2023-05-28T02:57:03;16.10;51.80
1337;DHT22;662;48.814;9.318;2023-05-28T02:59:28;16.10;51.80
1337;DHT22;662;48.814;9.318;2023-05-28T03:01:54;16.00;51.50
1337;DHT22;662;48.814;9.318;2023-05-28T03:04:20;16.00;51.40
1337;DHT22;662;48.814;9.318;2023-05-28T03:06:46;16.00;51.20
1337;DHT22;662;48.814;9.318;2023-05-28T03:09:12;16.00;51.20
1337;DHT22;662;48.814;9.318;2023-05-28T03:11:37;16.00;51.10
1337;DHT22;662;48.814;9.318;2023-05-28T03:14:03;16.00;51.20
1337;DHT22;662;48.814;9.318;2023-05-28T03:16:28;15.90;51.20
1337;DHT22;662;48.814;9.318;2023-05-28T03:18:57;15.90;51.10
1337;DHT22;662;48.814;9.318;2023-05-28T03:21:23;15.90;51.10
1337;DHT22;662;48.814;9.318;2023-05-28T03:23:49;15.80;50.90
1337;DHT22;662;48.814;9.318;2023-05-28T03:26:14;15.80;50.90
1337;DHT22;662;48.814;9.318;2023-05-28T03:28:40;15.70;51.00
1337;DHT22;662;48.814;9.318;2023-05-28T03:31:06;15.70;51.20
1337;DHT22;662;48.814;9.318;2023-05-28T03:33:31;15.60;51.20
1337;DHT22;662;48.814;9.318;2023-05-28T03:35:57;15.60;51.30
1337;DHT22;662;48.814;9.318;2023-05-28T03:38:22;15.60;51.50
1337;DHT22;662;48.814;9.318;2023-05-28T03:40:48;15.50;51.40
1337;DHT22;662;48.814;9.318;2023-05-28T03:43:14;15.50;51.40
1337;DHT22;662;48.814;9.318;2023-05-28T03:45:39;15.50;51.50
1337;DHT22;662;48.814;9.318;2023-05-28T03:48:05;15.50;51.60
1337;DHT22;662;48.814;9.318;2023-05-28T03:50:32;15.50;51.60
1337;DHT22;662;48.814;9.318;2023-05-28T03:52:57;15.40;51.50
1337;DHT22;662;48.814;9.318;2023-05-28T03:55:23;15.40;51.40
1337;DHT22;662;48.814;9.318;2023-05-28T03:57:48;15.30;51.40
1337;DHT22;662;48.814;9.318;2023-05-28T04:00:14;15.30;51.50
1337;DHT22;662;48.814;9.318;2023-05-28T04:02:40;15.20;51.60
1337;DHT22;662;48.814;9.318;2023-05-28T04:05:07;15.30;51.80
1337;DHT22;662;48.814;9.318;2023-05-28T04:07:33;15.30;51.80
1337;DHT22;662;48.814;9.318;2023-05-28T04:09:58;15.30;51.90
1337;DHT22;662;48.814;9.318;2023-05-28T04:12:24;15.30;51.90
1337;DHT22;662;48.814;9.318;2023-05-28T04:14:50;15.30;51.90
1337;DHT22;662;48.814;9.318;2023-05-28T04:17:16;15.20;51.90
1337;DHT22;662;48.814;9.318;2023-05-28T04:19:43;15.20;52.50
1337;DHT22;662;48.814;9.318;2023-05-28T04:22:09;15.20;52.10
1337;DHT22;662;48.814;9.318;2023-05-28T04:24:34;15.20;52.20
1337;DHT22;662;48.814;9.318;2023-05-28T04:27:00;15.20;52.30
1337;DHT22;662;48.814;9.318;2023-05-28T04:29:26;15.30;52.40
1337;DHT22;662;48.814;9.318;2023-05-28T04:31:56;15.30;52.40
1337;DHT22;662;48.814;9.318;2023-05-28T04:34:23;15.30;52.50
1337;DHT22;662;48.814;9.318;2023-05-28T04:36:50;15.20;52.50
1337;DHT22;662;48.814;9.318;2023-05-28T04:39:17;15.30;52.50
1337;DHT22;662;48.814;9.318;2023-05-28T04:41:43;15.30;52.50
1337;DHT22;662;48.814;9.318;2023-05-28T04:44:09;15.30;52.50
1337;DHT22;662;48.814;9.318;2023-05-28T04:46:35;15.40;52.60
1337;DHT22;662;48.814;9.318;2023-05-28T04:49:02;15.40;52.50
1337;DHT22;662;48.814;9.318;2023-05-28T04:51:29;15.40;52.40
1337;DHT22;662;48.814;9.318;2023-05-28T04:53:55;15.40;52.30
1337;DHT22;662;48.814;9.318;2023-05-28T04:56:21;15.40;52.40
1337;DHT22;662;48.814;9.318;2023-05-28T04:58:46;15.40;52.40
1337;DHT22;662;48.814;9.318;2023-05-28T05:01:13;15.40;52.50
1337;DHT22;662;48.814;9.318;2023-05-28T05:03:40;15.40;52.40
1337;DHT22;662;48.814;9.318;2023-05-28T05:06:06;15.40;52.40
1337;DHT22;662;48.814;9.318;2023-05-28T05:08:32;15.40;52.40
1337;DHT22;662;48.814;9.318;2023-05-28T05:11:00;15.40;52.50
1337;DHT22;662;48.814;9.318;2023-05-28T05:13:26;15.40;52.60
1337;DHT22;662;48.814;9.318;2023-05-28T05:15:52;15.40;52.80
1337;DHT22;662;48.814;9.318;2023-05-28T05:18:18;15.40;52.80
1337;DHT22;662;48.814;9.318;2023-05-28T05:20:43;15.40;52.80
1337;DHT22;662;48.814;9.318;2023-05-28T05:23:09;15.40;52.60
1337;DHT22;662;48.814;9.318;2023-05-28T05:25:35;15.40;52.50
1337;DHT22;662;48.814;9.318;2023-05-28T05:28:00;15.40;52.50
1337;DHT22;662;48.814;9.318;2023-05-28T05:30:26;15.40;52.40
1337;DHT22;662;48.814;9.318;2023-05-28T05:32:52;15.50;52.40
1337;DHT22;662;48.814;9.318;2023-05-28T05:35:17;15.50;52.50
1337;DHT22;662;48.814;9.318;2023-05-28T05:37:45;15.60;52.50
1337;DHT22;662;48.814;9.318;2023-05-28T05:40:11;15.70;52.50
1337;DHT22;662;48.814;9.318;2023-05-28T05:42:36;15.80;52.40
1337;DHT22;662;48.814;9.318;2023-05-28T05:45:03;15.80;52.40
1337;DHT22;662;48.814;9.318;2023-05-28T05:47:30;15.90;52.40
1337;DHT22;662;48.814;9.318;2023-05-28T05:49:57;15.90;52.50
1337;DHT22;662;48.814;9.318;2023-05-28T05:52:23;15.90;52.40
1337;DHT22;662;48.814;9.318;2023-05-28T05:54:49;16.00;52.40
1337;DHT22;662;48.814;9.318;2023-05-28T05:57:14;16.10;52.40
1337;DHT22;662;48.814;9.318;2023-05-28T05:59:43;16.10;52.40
1337;DHT22;662;48.814;9.318;2023-05-28T06:02:08;16.20;52.30
1337;DHT22;662;48.814;9.318;2023-05-28T06:04:34;16.20;52.10
1337;DHT22;662;48.814;9.318;2023-05-28T06:07:03;16.20;52.10
1337;DHT22;662;48.814;9.318;2023-05-28T06:09:30;16.30;52.10
1337;DHT22;662;48.814;9.318;2023-05-28T06:11:56;16.40;52.10
1337;DHT22;662;48.814;9.318;2023-05-28T06:14:23;16.40;51.80
1337;DHT22;662;48.814;9.318;2023-05-28T06:16:48;16.50;51.60
1337;DHT22;662;48.814;9.318;2023-05-28T06:19:14;16.50;51.40
1337;DHT22;662;48.814;9.318;2023-05-28T06:21:40;16.60;51.20
1337;DHT22;662;48.814;9.318;2023-05-28T06:24:06;16.70;51.20
1337;DHT22;662;48.814;9.318;2023-05-28T06:26:32;16.80;51.20
1337;DHT22;662;48.814;9.318;2023-05-28T06:28:58;16.80;51.10
1337;DHT22;662;48.814;9.318;2023-05-28T06:31:23;16.90;51.10
1337;DHT22;662;48.814;9.318;2023-05-28T06:33:49;17.00;50.90
1337;DHT22;662;48.814;9.318;2023-05-28T06:36:15;17.10;50.80
1337;DHT22;662;48.814;9.318;2023-05-28T06:38:41;17.20;50.40
1337;DHT22;662;48.814;9.318;2023-05-28T06:41:07;17.20;50.20
1337;DHT22;662;48.814;9.318;2023-05-28T06:43:32;17.30;50.00
1337;DHT22;662;48.814;9.318;2023-05-28T06:45:58;17.40;49.60
1337;DHT22;662;48.814;9.318;2023-05-28T06:48:23;17.40;49.30
1337;DHT22;662;48.814;9.318;2023-05-28T06:50:49;17.50;49.00
1337;DHT22;662;48.814;9.318;2023-05-28T06:53:15;17.60;48.90
1337;DHT22;662;48.814;9.318;2023-05-28T06:55:41;17.70;48.70
1337;DHT22;662;48.814;9.318;2023-05-28T06:58:07;17.80;48.40
1337;DHT22;662;48.814;9.318;2023-05-28T07:00:32;17.90;48.50
1337;DHT22;662;48.814;9.318;2023-05-28T07:02:58;18.00;48.50
1337;DHT22;662;48.814;9.318;2023-05-28T07:05:24;18.10;48.30
1337;DHT22;662;48.814;9.318;2023-05-28T07:07:49;18.20;48.00
1337;DHT22;662;48.814;9.318;2023-05-28T07:10:15;18.30;47.80
1337;DHT22;662;48.814;9.318;2023-05-28T07:12:44;18.30;47.60
1337;DHT22;662;48.814;9.318;2023-05-28T07:15:09;18.40;47.90
1337;DHT22;662;48.814;9.318;2023-05-28T07:17:35;18.50;47.30
1337;DHT22;662;48.814;9.318;2023-05-28T07:20:04;18.70;47.90
1337;DHT22;662;48.814;9.318;2023-05-28T07:22:31;18.80;47.20
1337;DHT22;662;48.814;9.318;2023-05-28T07:24:56;18.90;46.90
1337;DHT22;662;48.814;9.318;2023-05-28T07:27:22;18.90;46.50
1337;DHT22;662;48.814;9.318;2023-05-28T07:29:48;19.00;46.60
1337;DHT22;662;48.814;9.318;2023-05-28T07:32:13;19.10;47.00
1337;DHT22;662;48.814;9.318;2023-05-28T07:34:39;19.20;47.00
1337;DHT22;662;48.814;9.318;2023-05-28T07:37:06;19.40;47.00
1337;DHT22;662;48.814;9.318;2023-05-28T07:39:31;19.50;47.10
1337;DHT22;662;48.814;9.318;2023-05-28T07:41:57;19.50;46.70
1337;DHT22;662;48.814;9.318;2023-05-28T07:44:22;19.60;46.70
1337;DHT22;662;48.814;9.318;2023-05-28T07:46:48;19.70;46.60
1337;DHT22;662;48.814;9.318;2023-05-28T07:49:14;19.80;46.90
1337;DHT22;662;48.814;9.318;2023-05-28T07:51:42;19.90;46.30
1337;DHT22;662;48.814;9.318;2023-05-28T07:54:08;20.00;46.30
1337;DHT22;662;48.814;9.318;2023-05-28T07:56:34;20.10;46.10
1337;DHT22;662;48.814;9.318;2023-05-28T07:59:00;20.20;45.80
1337;DHT22;662;48.814;9.318;2023-05-28T08:01:28;20.20;45.50
1337;DHT22;662;48.814;9.318;2023-05-28T08:03:54;20.30;45.20
1337;DHT22;662;48.814;9.318;2023-05-28T08:06:22;20.30;45.10
1337;DHT22;662;48.814;9.318;2023-05-28T08:08:48;20.40;45.20
1337;DHT22;662;48.814;9.318;2023-05-28T08:11:17;20.50;45.30
1337;DHT22;662;48.814;9.318;2023-05-28T08:13:42;20.60;45.30
1337;DHT22;662;48.814;9.318;2023-05-28T08:16:11;20.70;45.10
1337;DHT22;662;48.814;9.318;2023-05-28T08:18:37;20.80;44.80
1337;DHT22;662;48.814;9.318;2023-05-28T08:21:05;20.90;44.50
1337;DHT22;662;48.814;9.318;2023-05-28T08:23:31;21.00;44.60
1337;DHT22;662;48.814;9.318;2023-05-28T08:26:01;21.10;44.30
1337;DHT22;662;48.814;9.318;2023-05-28T08:28:27;21.20;44.20
1337;DHT22;662;48.814;9.318;2023-05-28T08:30:53;21.30;44.00
1337;DHT22;662;48.814;9.318;2023-05-28T08:33:19;21.40;43.80
1337;DHT22;662;48.814;9.318;2023-05-28T08:35:45;21.50;43.80
1337;DHT22;662;48.814;9.318;2023-05-28T08:38:10;21.60;43.90
1337;DHT22;662;48.814;9.318;2023-05-28T08:40:41;21.70;43.60
1337;DHT22;662;48.814;9.318;2023-05-28T08:43:07;21.80;43.40
1337;DHT22;662;48.814;9.318;2023-05-28T08:45:34;22.00;43.50
1337;DHT22;662;48.814;9.318;2023-05-28T08:48:00;22.10;43.30
1337;DHT22;662;48.814;9.318;2023-05-28T08:50:27;22.20;43.10
1337;DHT22;662;48.814;9.318;2023-05-28T08:52:54;22.30;43.00
1337;DHT22;662;48.814;9.318;2023-05-28T08:55:21;22.40;43.10
1337;DHT22;662;48.814;9.318;2023-05-28T08:57:46;22.50;43.00
1337;DHT22;662;48.814;9.318;2023-05-28T09:00:12;22.60;43.20
1337;DHT22;662;48.814;9.318;2023-05-28T09:02:39;22.80;43.10
1337;DHT22;662;48.814;9.318;2023-05-28T09:05:05;22.80;42.50
1337;DHT22;662;48.814;9.318;2023-05-28T09:07:31;23.00;42.30
1337;DHT22;662;48.814;9.318;2023-05-28T09:09:57;23.10;42.00
1337;DHT22;662;48.814;9.318;2023-05-28T09:12:24;23.20;42.10
1337;DHT22;662;48.814;9.318;2023-05-28T09:14:53;23.30;42.10
1337;DHT22;662;48.814;9.318;2023-05-28T09:17:38;23.30;40.70
1337;DHT22;662;48.814;9.318;2023-05-28T09:20:11;23.40;41.00
1337;DHT22;662;48.814;9.318;2023-05-28T09:22:41;23.50;41.10
1337;DHT22;662;48.814;9.318;2023-05-28T09:25:08;23.60;41.00
1337;DHT22;662;48.814;9.318;2023-05-28T09:27:37;23.70;41.00
1337;DHT22;662;48.814;9.318;2023-05-28T09:30:04;23.80;41.10
1337;DHT22;662;48.814;9.318;2023-05-28T09:32:34;23.90;40.60
1337;DHT22;662;48.814;9.318;2023-05-28T09:35:00;24.10;40.70
1337;DHT22;662;48.814;9.318;2023-05-28T09:37:28;24.30;41.00
1337;DHT22;662;48.814;9.318;2023-05-28T09:40:05;24.50;40.40
1337;DHT22;662;48.814;9.318;2023-05-28T09:42:38;24.70;40.20
1337;DHT22;662;48.814;9.318;2023-05-28T09:45:10;24.80;39.90
1337;DHT22;662;48.814;9.318;2023-05-28T09:47:44;25.10;39.90
1337;DHT22;662;48.814;9.318;2023-05-28T09:50:10;25.50;38.50
1337;DHT22;662;48.814;9.318;2023-05-28T09:52:38;26.30;37.60
1337;DHT22;662;48.814;9.318;2023-05-28T09:55:07;27.30;36.00
1337;DHT22;662;48.814;9.318;2023-05-28T09:57:33;28.20;34.60
1337;DHT22;662;48.814;9.318;2023-05-28T10:00:01;29.10;33.60
1337;DHT22;662;48.814;9.318;2023-05-28T10:03:42;29.80;32.30
1337;DHT22;662;48.814;9.318;2023-05-28T10:05:49;30.80;31.10
1337;DHT22;662;48.814;9.318;2023-05-28T10:08:17;31.40;28.70
1337;DHT22;662;48.814;9.318;2023-05-28T10:10:45;31.80;27.70
1337;DHT22;662;48.814;9.318;2023-05-28T10:13:14;32.20;27.60
1337;DHT22;662;48.814;9.318;2023-05-28T10:15:41;32.60;27.10
1337;DHT22;662;48.814;9.318;2023-05-28T10:18:08;32.80;26.80
1337;DHT22;662;48.814;9.318;2023-05-28T10:20:34;33.20;27.10
1337;DHT22;662;48.814;9.318;2023-05-28T10:23:00;33.50;27.20
1337;DHT22;662;48.814;9.318;2023-05-28T10:25:26;33.80;26.80
1337;DHT22;662;48.814;9.318;2023-05-28T10:28:00;34.10;26.80
1337;DHT22;662;48.814;9.318;2023-05-28T10:30:37;34.30;26.30
1337;DHT22;662;48.814;9.318;2023-05-28T10:33:04;34.60;26.70
1337;DHT22;662;48.814;9.318;2023-05-28T10:35:32;35.00;26.00
1337;DHT22;662;48.814;9.318;2023-05-28T10:38:08;35.20;25.40
1337;DHT22;662;48.814;9.318;2023-05-28T10:40:39;35.50;25.50
1337;DHT22;662;48.814;9.318;2023-05-28T10:43:05;35.80;25.30
1337;DHT22;662;48.814;9.318;2023-05-28T10:45:35;36.00;24.60
1337;DHT22;662;48.814;9.318;2023-05-28T10:48:01;36.00;24.70
1337;DHT22;662;48.814;9.318;2023-05-28T10:50:28;36.10;24.10
1337;DHT22;662;48.814;9.318;2023-05-28T10:53:04;36.30;23.70
1337;DHT22;662;48.814;9.318;2023-05-28T10:55:52;36.30;23.40
1337;DHT22;662;48.814;9.318;2023-05-28T11:01:00;36.60;22.80
1337;DHT22;662;48.814;9.318;2023-05-28T11:06:08;36.60;22.30
1337;DHT22;662;48.814;9.318;2023-05-28T11:08:41;36.70;22.10
1337;DHT22;662;48.814;9.318;2023-05-28T11:11:09;36.80;21.50
1337;DHT22;662;48.814;9.318;2023-05-28T11:13:35;36.90;21.60
1337;DHT22;662;48.814;9.318;2023-05-28T11:16:14;36.90;21.90
1337;DHT22;662;48.814;9.318;2023-05-28T11:19:07;37.00;21.80
1337;DHT22;662;48.814;9.318;2023-05-28T11:21:51;37.10;21.20
1337;DHT22;662;48.814;9.318;2023-05-28T11:24:17;37.20;21.40
1337;DHT22;662;48.814;9.318;2023-05-28T11:26:43;37.40;21.40
1337;DHT22;662;48.814;9.318;2023-05-28T11:29:09;37.50;20.80
1337;DHT22;662;48.814;9.318;2023-05-28T11:31:41;37.60;20.40
1337;DHT22;662;48.814;9.318;2023-05-28T11:34:10;37.80;20.60
1337;DHT22;662;48.814;9.318;2023-05-28T11:36:43;38.00;20.20
1337;DHT22;662;48.814;9.318;2023-05-28T11:39:09;37.90;20.50
1337;DHT22;662;48.814;9.318;2023-05-28T11:41:35;37.70;20.50
1337;DHT22;662;48.814;9.318;2023-05-28T11:44:01;37.70;20.90
1337;DHT22;662;48.814;9.318;2023-05-28T11:46:27;37.80;20.50
1337;DHT22;662;48.814;9.318;2023-05-28T11:48:54;37.90;19.90
1337;DHT22;662;48.814;9.318;2023-05-28T11:51:20;37.80;20.20
1337;DHT22;662;48.814;9.318;2023-05-28T11:53:46;37.70;19.40
1337;DHT22;662;48.814;9.318;2023-05-28T11:56:12;37.60;20.20
1337;DHT22;662;48.814;9.318;2023-05-28T11:58:44;37.70;20.40
1337;DHT22;662;48.814;9.318;2023-05-28T12:01:15;37.50;19.90
1337;DHT22;662;48.814;9.318;2023-05-28T12:03:41;37.60;20.70
1337;DHT22;662;48.814;9.318;2023-05-28T12:06:07;37.80;20.90
1337;DHT22;662;48.814;9.318;2023-05-28T12:08:33;38.00;21.30
1337;DHT22;662;48.814;9.318;2023-05-28T12:11:04;38.10;20.50
1337;DHT22;662;48.814;9.318;2023-05-28T12:13:34;38.30;20.80
1337;DHT22;662;48.814;9.318;2023-05-28T12:16:10;38.50;20.80
1337;DHT22;662;48.814;9.318;2023-05-28T12:18:42;38.60;19.90
1337;DHT22;662;48.814;9.318;2023-05-28T12:21:17;38.70;20.00
1337;DHT22;662;48.814;9.318;2023-05-28T12:23:45;38.90;19.60
1337;DHT22;662;48.814;9.318;2023-05-28T12:26:11;38.90;19.40
1337;DHT22;662;48.814;9.318;2023-05-28T12:28:37;39.00;19.70
1337;DHT22;662;48.814;9.318;2023-05-28T12:31:05;39.10;19.60
1337;DHT22;662;48.814;9.318;2023-05-28T12:33:32;39.20;19.20
1337;DHT22;662;48.814;9.318;2023-05-28T12:35:58;39.30;19.20
1337;DHT22;662;48.814;9.318;2023-05-28T12:38:27;39.20;19.10
1337;DHT22;662;48.814;9.318;2023-05-28T12:40:53;39.20;19.00
1337;DHT22;662;48.814;9.318;2023-05-28T12:43:19;39.20;18.90
1337;DHT22;662;48.814;9.318;2023-05-28T12:45:45;39.00;18.80
1337;DHT22;662;48.814;9.318;2023-05-28T12:48:11;39.00;18.70
1337;DHT22;662;48.814;9.318;2023-05-28T12:50:37;39.00;19.10
1337;DHT22;662;48.814;9.318;2023-05-28T12:53:02;39.00;19.20
1337;DHT22;662;48.814;9.318;2023-05-28T12:55:30;39.10;18.90
1337;DHT22;662;48.814;9.318;2023-05-28T12:57:56;39.30;19.00
1337;DHT22;662;48.814;9.318;2023-05-28T13:00:22;39.40;19.40
1337;DHT22;662;48.814;9.318;2023-05-28T13:02:49;39.40;18.70
1337;DHT22;662;48.814;9.318;2023-05-28T13:05:15;39.40;18.90
1337;DHT22;662;48.814;9.318;2023-05-28T13:07:42;39.50;18.80
1337;DHT22;662;48.814;9.318;2023-05-28T13:10:09;39.30;18.50
1337;DHT22;662;48.814;9.318;2023-05-28T13:12:36;39.00;18.40
1337;DHT22;662;48.814;9.318;2023-05-28T13:15:06;38.60;18.20
1337;DHT22;662;48.814;9.318;2023-05-28T13:17:32;38.30;18.30
1337;DHT22;662;48.814;9.318;2023-05-28T13:19:57;38.10;18.70
1337;DHT22;662;48.814;9.318;2023-05-28T13:22:23;38.10;18.90
1337;DHT22;662;48.814;9.318;2023-05-28T13:24:49;38.20;19.60
1337;DHT22;662;48.814;9.318;2023-05-28T13:27:15;38.30;19.40
1337;DHT22;662;48.814;9.318;2023-05-28T13:29:40;38.50;20.00
1337;DHT22;662;48.814;9.318;2023-05-28T13:32:06;38.60;20.20
1337;DHT22;662;48.814;9.318;2023-05-28T13:34:32;38.50;20.00
1337;DHT22;662;48.814;9.318;2023-05-28T13:36:58;38.60;20.30
1337;DHT22;662;48.814;9.318;2023-05-28T13:39:23;38.60;20.10
1337;DHT22;662;48.814;9.318;2023-05-28T13:41:50;38.70;20.60
1337;DHT22;662;48.814;9.318;2023-05-28T13:44:17;38.70;20.30
1337;DHT22;662;48.814;9.318;2023-05-28T13:46:43;38.80;19.80
1337;DHT22;662;48.814;9.318;2023-05-28T13:49:09;38.70;20.00
1337;DHT22;662;48.814;9.318;2023-05-28T13:51:35;38.70;20.10
1337;DHT22;662;48.814;9.318;2023-05-28T13:54:01;38.60;20.10
1337;DHT22;662;48.814;9.318;2023-05-28T13:56:26;38.70;20.10
1337;DHT22;662;48.814;9.318;2023-05-28T13:58:52;38.70;20.30
1337;DHT22;662;48.814;9.318;2023-05-28T14:01:18;38.80;20.40
1337;DHT22;662;48.814;9.318;2023-05-28T14:03:43;38.90;20.60
1337;DHT22;662;48.814;9.318;2023-05-28T14:06:11;38.90;20.10
1337;DHT22;662;48.814;9.318;2023-05-28T14:08:37;38.90;20.20
1337;DHT22;662;48.814;9.318;2023-05-28T14:11:03;38.70;19.80
1337;DHT22;662;48.814;9.318;2023-05-28T14:13:29;38.50;20.20
1337;DHT22;662;48.814;9.318;2023-05-28T14:15:57;38.40;20.30
1337;DHT22;662;48.814;9.318;2023-05-28T14:18:23;38.30;19.80
1337;DHT22;662;48.814;9.318;2023-05-28T14:20:49;38.10;20.60
1337;DHT22;662;48.814;9.318;2023-05-28T14:23:14;38.10;20.40
1337;DHT22;662;48.814;9.318;2023-05-28T14:25:40;38.00;20.40
1337;DHT22;662;48.814;9.318;2023-05-28T14:28:05;38.00;20.40
1337;DHT22;662;48.814;9.318;2023-05-28T14:30:31;38.00;20.60
1337;DHT22;662;48.814;9.318;2023-05-28T14:32:57;38.00;20.70
1337;DHT22;662;48.814;9.318;2023-05-28T14:35:22;38.00;20.60
1337;DHT22;662;48.814;9.318;2023-05-28T14:37:48;37.90;20.50
1337;DHT22;662;48.814;9.318;2023-05-28T14:40:19;37.80;19.90
1337;DHT22;662;48.814;9.318;2023-05-28T14:42:45;37.70;20.40
1337;DHT22;662;48.814;9.318;2023-05-28T14:45:11;37.50;20.40
1337;DHT22;662;48.814;9.318;2023-05-28T14:47:37;37.30;20.50
1337;DHT22;662;48.814;9.318;2023-05-28T14:50:04;37.10;20.70
1337;DHT22;662;48.814;9.318;2023-05-28T14:52:31;36.80;20.80
1337;DHT22;662;48.814;9.318;2023-05-28T14:54:58;36.50;20.90
1337;DHT22;662;48.814;9.318;2023-05-28T14:57:25;36.30;21.10
1337;DHT22;662;48.814;9.318;2023-05-28T14:59:53;36.00;21.40
1337;DHT22;662;48.814;9.318;2023-05-28T15:02:19;35.70;21.90
1337;DHT22;662;48.814;9.318;2023-05-28T15:04:45;35.40;22.20
1337;DHT22;662;48.814;9.318;2023-05-28T15:07:12;35.10;22.00
1337;DHT22;662;48.814;9.318;2023-05-28T15:09:39;34.70;21.80
1337;DHT22;662;48.814;9.318;2023-05-28T15:12:05;34.40;22.40
1337;DHT22;662;48.814;9.318;2023-05-28T15:14:34;34.10;22.40
1337;DHT22;662;48.814;9.318;2023-05-28T15:17:01;33.80;22.80
1337;DHT22;662;48.814;9.318;2023-05-28T15:19:27;33.60;23.10
1337;DHT22;662;48.814;9.318;2023-05-28T15:21:52;33.30;23.20
1337;DHT22;662;48.814;9.318;2023-05-28T15:24:18;33.00;23.40
1337;DHT22;662;48.814;9.318;2023-05-28T15:26:44;32.60;23.60
1337;DHT22;662;48.814;9.318;2023-05-28T15:29:12;32.40;23.80
1337;DHT22;662;48.814;9.318;2023-05-28T15:31:40;32.20;24.20
1337;DHT22;662;48.814;9.318;2023-05-28T15:34:07;32.00;24.20
1337;DHT22;662;48.814;9.318;2023-05-28T15:36:33;31.80;24.40
1337;DHT22;662;48.814;9.318;2023-05-28T15:38:59;31.50;24.80
1337;DHT22;662;48.814;9.318;2023-05-28T15:41:25;31.30;25.00
1337;DHT22;662;48.814;9.318;2023-05-28T15:43:51;31.00;25.10
1337;DHT22;662;48.814;9.318;2023-05-28T15:46:19;30.80;25.40
1337;DHT22;662;48.814;9.318;2023-05-28T15:48:45;30.60;25.60
1337;DHT22;662;48.814;9.318;2023-05-28T15:51:11;30.40;25.80
1337;DHT22;662;48.814;9.318;2023-05-28T15:53:37;30.20;26.30
1337;DHT22;662;48.814;9.318;2023-05-28T15:56:03;30.00;26.70
1337;DHT22;662;48.814;9.318;2023-05-28T15:58:29;29.80;26.80
1337;DHT22;662;48.814;9.318;2023-05-28T16:00:55;29.60;26.60
1337;DHT22;662;48.814;9.318;2023-05-28T16:03:21;29.40;26.80
1337;DHT22;662;48.814;9.318;2023-05-28T16:05:47;29.30;27.10
1337;DHT22;662;48.814;9.318;2023-05-28T16:08:13;29.20;27.10
1337;DHT22;662;48.814;9.318;2023-05-28T16:10:39;29.00;27.30
1337;DHT22;662;48.814;9.318;2023-05-28T16:13:06;28.90;27.40
1337;DHT22;662;48.814;9.318;2023-05-28T16:15:33;28.80;27.80
1337;DHT22;662;48.814;9.318;2023-05-28T16:18:03;28.60;28.10
1337;DHT22;662;48.814;9.318;2023-05-28T16:20:29;28.50;28.10